createdAt,value
2019-04-30T00:02:21.715Z,9.20
2019-04-30T00:04:51.330Z,9.20
2019-04-30T00:07:21.074Z,9.20
2019-04-30T00:09:53.953Z,9.20
2019-04-30T00:12:22.282Z,9.20
2019-04-30T00:14:51.962Z,9.10
2019-04-30T00:17:21.554Z,9.10
2019-04-30T00:19:55.794Z,9.20
2019-04-30T00:22:33.176Z,9.20
2019-04-30T00:24:55.493Z,9.10
2019-04-30T00:27:26.381Z,9.10
2019-04-30T00:29:55.809Z,9.10
2019-04-30T00:32:25.820Z,9.10
2019-04-30T00:34:55.674Z,9.10
2019-04-30T00:37:26.394Z,9.20
2019-04-30T00:39:55.893Z,9.20
2019-04-30T00:42:28.718Z,9.20
2019-04-30T00:44:59.670Z,9.20
2019-04-30T00:47:27.338Z,9.20
2019-04-30T00:50:00.104Z,9.20
2019-04-30T00:52:29.457Z,9.10
2019-04-30T00:55:00.429Z,9.10
2019-04-30T00:57:29.786Z,9.00
2019-04-30T00:59:59.122Z,9.00
2019-04-30T01:02:45.578Z,9.00
2019-04-30T01:05:17.388Z,9.00
2019-04-30T01:07:50.548Z,8.90
2019-04-30T01:10:19.659Z,8.90
2019-04-30T01:12:50.208Z,8.90
2019-04-30T01:15:19.991Z,8.90
2019-04-30T01:17:50.944Z,8.90
2019-04-30T01:20:23.970Z,8.90
2019-04-30T01:22:52.364Z,8.80
2019-04-30T01:25:21.771Z,8.80
2019-04-30T01:27:52.175Z,8.80
2019-04-30T01:30:22.853Z,8.70
2019-04-30T01:32:57.131Z,8.70
2019-04-30T01:35:23.806Z,8.80
2019-04-30T01:37:54.634Z,8.70
2019-04-30T01:40:23.952Z,8.70
2019-04-30T01:42:53.274Z,8.70
2019-04-30T01:45:23.111Z,8.60
2019-04-30T01:47:53.802Z,8.60
2019-04-30T01:50:23.264Z,8.70
2019-04-30T01:52:52.655Z,8.70
2019-04-30T01:55:30.919Z,8.70
2019-04-30T01:58:30.003Z,8.70
2019-04-30T02:01:01.486Z,8.70
2019-04-30T02:03:30.873Z,8.60
2019-04-30T02:06:00.255Z,8.60
2019-04-30T02:08:29.864Z,8.60
2019-04-30T02:10:59.532Z,8.50
2019-04-30T02:13:31.194Z,8.50
2019-04-30T02:16:00.347Z,8.50
2019-04-30T02:18:30.063Z,8.50
2019-04-30T02:20:59.631Z,8.40
2019-04-30T02:23:29.717Z,8.50
2019-04-30T02:25:59.633Z,8.40
2019-04-30T02:28:29.268Z,8.50
2019-04-30T02:31:00.327Z,8.40
2019-04-30T02:33:31.695Z,8.40
2019-04-30T02:36:20.026Z,8.40
2019-04-30T02:38:51.944Z,8.40
2019-04-30T02:41:22.214Z,8.30
2019-04-30T02:43:53.840Z,8.40
2019-04-30T02:46:25.893Z,8.30
2019-04-30T02:48:59.529Z,8.20
2019-04-30T02:51:30.648Z,8.20
2019-04-30T02:54:15.698Z,8.30
2019-04-30T02:56:50.719Z,8.30
2019-04-30T02:59:20.258Z,8.20
2019-04-30T03:01:50.338Z,8.20
2019-04-30T03:04:19.990Z,8.30
2019-04-30T03:06:50.338Z,8.20
2019-04-30T03:09:20.442Z,8.30
2019-04-30T03:11:50.413Z,8.30
2019-04-30T03:14:20.364Z,8.30
2019-04-30T03:17:10.215Z,8.30
2019-04-30T03:19:45.653Z,8.30
2019-04-30T03:22:20.229Z,8.30
2019-04-30T03:24:50.060Z,8.30
2019-04-30T03:27:20.695Z,8.30
2019-04-30T03:29:50.777Z,8.20
2019-04-30T03:32:22.024Z,8.20
2019-04-30T03:34:52.075Z,8.20
2019-04-30T03:37:21.720Z,8.20
2019-04-30T03:39:51.102Z,8.10
2019-04-30T03:42:20.480Z,8.00
2019-04-30T03:44:50.277Z,8.00
2019-04-30T03:47:20.141Z,8.00
2019-04-30T03:49:50.171Z,7.90
2019-04-30T03:52:20.161Z,7.90
2019-04-30T03:54:49.738Z,8.00
2019-04-30T03:57:20.422Z,8.00
2019-04-30T03:59:50.283Z,8.00
2019-04-30T04:02:51.060Z,8.00
2019-04-30T04:05:44.223Z,8.00
2019-04-30T04:08:19.980Z,8.00
2019-04-30T04:11:02.471Z,8.00
2019-04-30T04:13:33.084Z,7.90
2019-04-30T04:16:02.769Z,8.00
2019-04-30T04:18:32.608Z,8.00
2019-04-30T04:21:11.499Z,8.00
2019-04-30T04:23:33.221Z,8.00
2019-04-30T04:26:02.691Z,8.00
2019-04-30T04:28:32.004Z,8.00
2019-04-30T04:31:01.356Z,8.00
2019-04-30T04:33:30.726Z,7.80
2019-04-30T04:36:00.056Z,7.90
2019-04-30T04:38:30.403Z,7.90
2019-04-30T04:41:02.994Z,7.80
2019-04-30T04:43:31.331Z,7.80
2019-04-30T04:46:00.896Z,7.90
2019-04-30T04:48:30.324Z,7.90
2019-04-30T04:51:00.253Z,7.90
2019-04-30T04:53:30.594Z,8.00
2019-04-30T04:56:00.130Z,7.90
2019-04-30T04:58:30.302Z,7.90
2019-04-30T05:01:00.050Z,8.00
2019-04-30T05:03:39.942Z,8.00
2019-04-30T05:06:11.464Z,8.00
2019-04-30T05:08:40.099Z,8.00
2019-04-30T05:11:09.619Z,8.00
2019-04-30T05:13:39.621Z,8.00
2019-04-30T05:16:09.263Z,8.00
2019-04-30T05:18:39.181Z,8.00
2019-04-30T05:21:08.933Z,8.00
2019-04-30T05:23:41.107Z,8.00
2019-04-30T05:26:11.061Z,8.00
2019-04-30T05:28:40.945Z,8.00
2019-04-30T05:31:10.346Z,7.90
2019-04-30T05:33:39.754Z,8.00
2019-04-30T05:36:09.397Z,8.00
2019-04-30T05:38:39.312Z,8.00
2019-04-30T05:41:09.402Z,8.00
2019-04-30T05:43:39.130Z,8.00
2019-04-30T05:46:10.944Z,7.90
2019-04-30T05:48:39.822Z,7.90
2019-04-30T05:51:09.246Z,7.90
2019-04-30T05:53:39.343Z,7.90
2019-04-30T05:56:09.404Z,8.00
2019-04-30T05:58:39.822Z,7.90
2019-04-30T06:01:09.923Z,7.90
2019-04-30T06:03:39.509Z,8.00
2019-04-30T06:06:11.401Z,7.90
2019-04-30T06:08:48.955Z,7.90
2019-04-30T06:11:32.689Z,8.00
2019-04-30T06:14:48.702Z,8.00
2019-04-30T06:17:13.245Z,8.00
2019-04-30T06:19:42.637Z,8.00
2019-04-30T06:22:12.061Z,8.00
2019-04-30T06:24:41.612Z,8.10
2019-04-30T06:27:11.073Z,8.10
2019-04-30T06:29:41.029Z,8.10
2019-04-30T06:32:10.988Z,8.10
2019-04-30T06:34:41.922Z,8.10
2019-04-30T06:37:12.123Z,8.20
2019-04-30T06:39:41.486Z,8.20
2019-04-30T06:42:12.936Z,8.20
2019-04-30T06:44:42.954Z,8.20
2019-04-30T06:47:13.052Z,8.20
2019-04-30T06:49:42.760Z,8.20
2019-04-30T06:52:20.358Z,8.20
2019-04-30T06:54:43.169Z,8.20
2019-04-30T06:57:12.624Z,8.30
2019-04-30T06:59:42.373Z,8.40
2019-04-30T07:02:11.925Z,8.40
2019-04-30T07:04:41.329Z,8.40
2019-04-30T07:07:14.270Z,8.30
2019-04-30T07:09:55.821Z,8.30
2019-04-30T07:12:38.986Z,8.30
2019-04-30T07:15:09.105Z,8.40
2019-04-30T07:17:40.549Z,8.50
2019-04-30T07:20:10.436Z,8.50
2019-04-30T07:22:48.810Z,8.50
2019-04-30T07:25:10.980Z,8.50
2019-04-30T07:27:40.315Z,8.50
2019-04-30T07:30:10.310Z,8.60
2019-04-30T07:32:39.536Z,8.60
2019-04-30T07:35:09.634Z,8.60
2019-04-30T07:37:39.406Z,8.60
2019-04-30T07:40:09.343Z,8.60
2019-04-30T07:42:44.723Z,8.70
2019-04-30T07:45:10.068Z,8.70
2019-04-30T07:47:39.765Z,8.70
2019-04-30T07:50:10.635Z,8.70
2019-04-30T07:52:57.574Z,8.80
2019-04-30T07:55:12.022Z,8.80
2019-04-30T07:57:41.737Z,8.80
2019-04-30T08:00:11.138Z,8.80
2019-04-30T08:02:46.443Z,8.90
2019-04-30T08:05:24.966Z,9.00
2019-04-30T08:07:54.556Z,9.00
2019-04-30T08:10:23.927Z,9.00
2019-04-30T08:12:53.630Z,9.10
2019-04-30T08:15:23.224Z,9.10
2019-04-30T08:18:02.752Z,9.20
2019-04-30T08:20:23.607Z,9.20
2019-04-30T08:22:52.900Z,9.20
2019-04-30T08:25:22.237Z,9.20
2019-04-30T08:27:51.590Z,9.20
2019-04-30T08:30:26.431Z,9.20
2019-04-30T08:32:51.970Z,9.20
2019-04-30T08:35:21.299Z,9.20
2019-04-30T08:37:50.902Z,9.30
2019-04-30T08:40:20.308Z,9.30
2019-04-30T08:42:49.793Z,9.30
2019-04-30T08:45:19.897Z,9.40
2019-04-30T08:47:49.525Z,9.50
2019-04-30T08:50:20.189Z,9.50
2019-04-30T08:52:50.435Z,9.50
2019-04-30T08:55:22.493Z,9.70
2019-04-30T08:57:51.282Z,9.70
2019-04-30T09:00:21.124Z,9.60
2019-04-30T09:02:50.455Z,9.70
2019-04-30T09:05:27.999Z,9.70
2019-04-30T09:07:56.410Z,9.70
2019-04-30T09:10:25.770Z,9.80
2019-04-30T09:12:55.104Z,9.90
2019-04-30T09:15:24.494Z,10.00
2019-04-30T09:18:03.106Z,10.00
2019-04-30T09:20:25.056Z,10.10
2019-04-30T09:22:54.786Z,10.10
2019-04-30T09:25:24.094Z,10.10
2019-04-30T09:27:53.802Z,10.20
2019-04-30T09:30:23.094Z,10.20
2019-04-30T09:32:52.481Z,10.30
2019-04-30T09:35:21.835Z,10.40
2019-04-30T09:37:59.066Z,10.40
2019-04-30T09:40:22.254Z,10.60
2019-04-30T09:42:51.673Z,10.70
2019-04-30T09:45:21.023Z,10.70
2019-04-30T09:47:50.630Z,10.70
2019-04-30T09:50:20.220Z,10.70
2019-04-30T09:52:49.992Z,10.80
2019-04-30T09:55:19.704Z,10.80
2019-04-30T09:57:49.080Z,10.80
2019-04-30T10:00:19.463Z,10.90
2019-04-30T10:02:49.023Z,10.80
2019-04-30T10:05:19.851Z,10.80
2019-04-30T10:07:50.002Z,10.90
2019-04-30T10:10:22.934Z,10.90
2019-04-30T10:12:52.327Z,10.90
2019-04-30T10:15:49.956Z,11.00
2019-04-30T10:18:18.121Z,11.00
2019-04-30T10:20:47.878Z,11.10
2019-04-30T10:23:19.318Z,11.20
2019-04-30T10:25:48.704Z,11.20
2019-04-30T10:28:19.629Z,11.30
2019-04-30T10:30:49.164Z,11.30
2019-04-30T10:33:19.594Z,11.40
2019-04-30T10:35:49.953Z,11.40
2019-04-30T10:38:19.530Z,11.50
2019-04-30T10:40:49.399Z,11.60
2019-04-30T10:43:19.794Z,11.70
2019-04-30T10:45:49.648Z,11.80
2019-04-30T10:48:18.986Z,11.90
2019-04-30T10:50:49.189Z,11.90
2019-04-30T10:53:18.908Z,12.00
2019-04-30T10:55:48.608Z,12.20
2019-04-30T10:58:18.285Z,12.20
2019-04-30T11:00:49.702Z,12.30
2019-04-30T11:03:22.428Z,12.40
2019-04-30T11:05:49.882Z,12.50
2019-04-30T11:08:19.306Z,12.60
2019-04-30T11:10:48.674Z,12.60
2019-04-30T11:13:18.095Z,12.70
2019-04-30T11:15:49.156Z,12.90
2019-04-30T11:18:18.639Z,13.00
2019-04-30T11:20:49.812Z,13.10
2019-04-30T11:23:21.246Z,13.10
2019-04-30T11:25:51.483Z,13.20
2019-04-30T11:28:21.831Z,13.30
2019-04-30T11:30:53.929Z,13.40
2019-04-30T11:33:23.748Z,13.50
2019-04-30T11:36:02.244Z,13.60
2019-04-30T11:38:24.314Z,13.70
2019-04-30T11:40:53.739Z,13.90
2019-04-30T11:43:23.228Z,13.90
2019-04-30T11:46:35.078Z,14.10
2019-04-30T11:49:05.018Z,14.20
2019-04-30T11:51:34.489Z,14.40
2019-04-30T11:54:03.943Z,14.50
2019-04-30T11:56:33.300Z,14.60
2019-04-30T11:59:02.729Z,14.80
2019-04-30T12:01:32.500Z,14.90
2019-04-30T12:04:01.856Z,15.00
2019-04-30T12:06:31.172Z,15.20
2019-04-30T12:09:11.231Z,15.40
2019-04-30T12:11:40.755Z,15.40
2019-04-30T12:14:10.241Z,15.60
2019-04-30T12:16:39.678Z,15.70
2019-04-30T12:19:09.614Z,15.90
2019-04-30T12:21:38.968Z,16.00
2019-04-30T12:24:08.336Z,16.00
2019-04-30T12:26:38.890Z,16.00
2019-04-30T12:29:08.985Z,16.30
2019-04-30T12:31:39.505Z,16.50
2019-04-30T12:34:08.811Z,16.60
2019-04-30T12:36:38.817Z,16.70
2019-04-30T12:39:08.329Z,16.90
2019-04-30T12:41:38.980Z,17.10
2019-04-30T12:44:08.655Z,17.20
2019-04-30T12:46:38.743Z,17.30
2019-04-30T12:49:11.394Z,17.50
2019-04-30T12:52:06.301Z,17.90
2019-04-30T12:54:50.161Z,18.00
2019-04-30T12:57:56.449Z,18.50
2019-04-30T13:00:19.350Z,18.80
2019-04-30T13:02:48.431Z,19.30
2019-04-30T13:05:18.866Z,19.40
2019-04-30T13:07:50.084Z,19.70
2019-04-30T13:10:19.871Z,20.10
2019-04-30T13:12:49.985Z,20.00
2019-04-30T13:15:19.996Z,20.10
2019-04-30T13:17:50.157Z,20.10
2019-04-30T13:20:23.850Z,20.20
2019-04-30T13:22:51.156Z,20.60
2019-04-30T13:25:30.307Z,20.70
2019-04-30T13:27:54.700Z,20.30
2019-04-30T13:30:29.883Z,20.40
2019-04-30T13:33:24.696Z,20.90
2019-04-30T13:35:54.070Z,21.60
2019-04-30T13:38:31.460Z,21.70
2019-04-30T13:41:19.763Z,21.70
2019-04-30T13:44:10.687Z,21.90
2019-04-30T13:46:40.430Z,21.60
2019-04-30T13:49:09.884Z,21.90
2019-04-30T13:51:39.259Z,21.70
2019-04-30T13:54:08.725Z,21.80
2019-04-30T13:56:39.657Z,22.00
2019-04-30T13:59:09.227Z,22.20
2019-04-30T14:01:39.074Z,22.80
2019-04-30T14:04:18.204Z,22.70
2019-04-30T14:07:00.035Z,22.70
2019-04-30T14:09:30.415Z,22.80
2019-04-30T14:11:59.803Z,22.60
2019-04-30T14:14:29.646Z,22.70
2019-04-30T14:17:01.187Z,22.70
2019-04-30T14:19:30.508Z,22.70
2019-04-30T14:21:59.943Z,23.00
2019-04-30T14:24:29.474Z,23.40
2019-04-30T14:26:59.148Z,23.30
2019-04-30T14:29:30.206Z,23.40
2019-04-30T14:31:59.956Z,23.40
2019-04-30T14:34:29.406Z,23.60
2019-04-30T14:36:59.379Z,23.50
2019-04-30T14:39:29.330Z,23.50
2019-04-30T14:41:59.875Z,23.30
2019-04-30T14:44:32.579Z,23.50
2019-04-30T14:47:13.051Z,23.60
2019-04-30T14:50:05.078Z,23.40
2019-04-30T14:52:36.184Z,23.40
2019-04-30T14:55:25.321Z,23.70
2019-04-30T14:58:20.428Z,23.70
2019-04-30T15:01:11.986Z,23.00
2019-04-30T15:03:41.616Z,23.60
2019-04-30T15:06:10.957Z,23.70
2019-04-30T15:08:40.303Z,23.70
2019-04-30T15:11:09.883Z,23.70
2019-04-30T15:13:39.577Z,23.80
2019-04-30T15:16:08.979Z,23.50
2019-04-30T15:18:38.886Z,23.20
2019-04-30T15:21:09.581Z,23.40
2019-04-30T15:24:00.926Z,23.40
2019-04-30T15:26:29.314Z,23.00
2019-04-30T15:28:59.980Z,22.90
2019-04-30T15:31:29.843Z,22.90
2019-04-30T15:34:24.457Z,23.00
2019-04-30T15:36:53.835Z,22.70
2019-04-30T15:39:43.356Z,22.90
2019-04-30T15:42:13.467Z,22.90
2019-04-30T15:44:45.546Z,22.60
2019-04-30T15:47:14.198Z,22.10
2019-04-30T15:49:43.687Z,21.90
2019-04-30T15:52:13.051Z,21.60
2019-04-30T15:54:42.417Z,21.80
2019-04-30T15:57:11.731Z,21.70
2019-04-30T15:59:45.119Z,21.80
2019-04-30T16:02:53.467Z,21.90
2019-04-30T16:05:33.201Z,21.50
2019-04-30T16:08:20.189Z,21.50
2019-04-30T16:11:08.163Z,21.50
2019-04-30T16:14:08.464Z,21.30
2019-04-30T16:16:39.856Z,20.80
2019-04-30T16:19:28.853Z,21.00
2019-04-30T16:21:58.297Z,20.90
2019-04-30T16:24:28.762Z,20.70
2019-04-30T16:26:59.311Z,20.80
2019-04-30T16:29:29.927Z,20.80
2019-04-30T16:31:59.729Z,20.70
2019-04-30T16:34:30.395Z,20.50
2019-04-30T16:37:00.411Z,20.30
2019-04-30T16:39:29.828Z,20.10
2019-04-30T16:41:59.368Z,20.00
2019-04-30T16:44:28.755Z,19.90
2019-04-30T16:46:59.671Z,19.80
2019-04-30T16:49:29.157Z,19.90
2019-04-30T16:52:01.206Z,19.80
2019-04-30T16:54:29.921Z,19.60
2019-04-30T16:57:04.121Z,19.30
2019-04-30T16:59:38.981Z,19.20
2019-04-30T17:02:09.425Z,18.90
2019-04-30T17:05:03.689Z,18.90
2019-04-30T17:07:46.813Z,18.90
2019-04-30T17:10:34.002Z,18.60
2019-04-30T17:13:22.224Z,18.40
2019-04-30T17:15:54.245Z,18.40
2019-04-30T17:18:23.618Z,18.00
2019-04-30T17:20:52.956Z,17.90
2019-04-30T17:23:22.345Z,17.60
2019-04-30T17:25:52.121Z,17.50
2019-04-30T17:28:21.487Z,17.30
2019-04-30T17:30:50.853Z,17.50
2019-04-30T17:33:20.229Z,17.40
2019-04-30T17:35:49.930Z,17.40
2019-04-30T17:38:19.645Z,17.30
2019-04-30T17:40:49.764Z,17.40
2019-04-30T17:43:19.287Z,17.10
2019-04-30T17:45:49.308Z,16.90
2019-04-30T17:48:19.163Z,16.80
2019-04-30T17:50:49.755Z,16.50
2019-04-30T17:53:19.317Z,16.20
2019-04-30T17:55:49.156Z,15.90
2019-04-30T17:58:20.620Z,15.70
2019-04-30T18:00:53.484Z,15.50
2019-04-30T18:03:22.861Z,15.50
2019-04-30T18:05:52.290Z,15.50
2019-04-30T18:08:22.101Z,15.30
2019-04-30T18:13:48.457Z,15.00
2019-04-30T18:16:18.777Z,14.80
2019-04-30T18:18:54.329Z,14.70
2019-04-30T18:21:34.247Z,14.80
2019-04-30T18:24:21.383Z,14.60
2019-04-30T18:26:55.812Z,14.40
2019-04-30T18:29:25.226Z,14.40
2019-04-30T18:31:54.899Z,14.10
2019-04-30T18:34:24.315Z,13.90
2019-04-30T18:36:53.724Z,13.50
2019-04-30T18:39:23.262Z,13.40
2019-04-30T18:41:52.509Z,13.40
2019-04-30T18:44:22.859Z,13.30
2019-04-30T18:46:52.247Z,13.00
2019-04-30T18:49:21.674Z,12.80
2019-04-30T18:51:51.103Z,12.60
2019-04-30T18:54:21.071Z,12.50
2019-04-30T18:56:50.482Z,12.50
2019-04-30T18:59:19.894Z,12.40
2019-04-30T19:01:49.759Z,12.30
2019-04-30T19:04:19.203Z,12.30
2019-04-30T19:06:49.341Z,12.20
2019-04-30T19:09:49.887Z,12.10
2019-04-30T19:12:38.962Z,12.00
2019-04-30T19:15:41.293Z,12.00
2019-04-30T19:18:10.172Z,12.00
2019-04-30T19:20:43.352Z,12.10
2019-04-30T19:23:12.692Z,12.10
2019-04-30T19:25:42.034Z,12.10
2019-04-30T19:28:14.488Z,12.10
2019-04-30T19:30:54.746Z,11.90
2019-04-30T19:33:14.092Z,11.80
2019-04-30T19:35:43.416Z,11.80
2019-04-30T19:38:12.777Z,11.70
2019-04-30T19:40:42.728Z,11.60
2019-04-30T19:43:12.152Z,11.60
2019-04-30T19:45:41.652Z,11.60
2019-04-30T19:48:11.141Z,11.70
2019-04-30T19:50:41.164Z,11.50
2019-04-30T19:53:10.638Z,11.40
2019-04-30T19:55:40.048Z,11.40
2019-04-30T19:58:10.806Z,11.40
2019-04-30T20:00:40.600Z,11.40
2019-04-30T20:03:10.460Z,11.40
2019-04-30T20:05:39.780Z,11.40
2019-04-30T20:08:11.108Z,11.40
2019-04-30T20:10:40.526Z,11.30
2019-04-30T20:13:10.836Z,11.20
2019-04-30T20:15:40.454Z,11.20
2019-04-30T20:18:10.271Z,11.10
2019-04-30T20:20:41.306Z,11.10
2019-04-30T20:23:10.718Z,11.20
2019-04-30T20:25:40.088Z,11.20
2019-04-30T20:28:12.141Z,11.10
2019-04-30T20:30:40.854Z,11.00
2019-04-30T20:33:10.274Z,11.10
2019-04-30T20:35:41.189Z,11.00
2019-04-30T20:38:28.624Z,11.00
2019-04-30T20:41:02.446Z,11.00
2019-04-30T20:43:29.683Z,11.00
2019-04-30T20:46:00.754Z,11.00
2019-04-30T20:48:30.639Z,10.90
2019-04-30T20:51:01.424Z,10.90
2019-04-30T20:53:31.387Z,10.80
2019-04-30T20:56:00.794Z,10.80
2019-04-30T20:58:30.210Z,10.70
2019-04-30T21:01:06.169Z,10.70
2019-04-30T21:03:30.838Z,10.70
2019-04-30T21:06:00.627Z,10.60
2019-04-30T21:08:30.698Z,10.60
2019-04-30T21:11:00.078Z,10.60
2019-04-30T21:13:29.590Z,10.60
2019-04-30T21:15:59.508Z,10.50
2019-04-30T21:18:32.106Z,10.50
2019-04-30T21:21:00.224Z,10.40
2019-04-30T21:23:29.654Z,10.40
2019-04-30T21:25:59.229Z,10.40
2019-04-30T21:28:29.835Z,10.40
2019-04-30T21:31:02.129Z,10.40
2019-04-30T21:33:44.206Z,10.40
2019-04-30T21:36:19.550Z,10.50
2019-04-30T21:38:49.088Z,10.60
2019-04-30T21:41:19.587Z,10.60
2019-04-30T21:44:08.382Z,10.50
2019-04-30T21:46:39.450Z,10.40
2019-04-30T21:49:09.018Z,10.40
2019-04-30T21:51:40.161Z,10.30
2019-04-30T21:54:09.733Z,10.40
2019-04-30T21:56:39.482Z,10.40
2019-04-30T21:59:08.798Z,10.20
2019-04-30T22:01:38.254Z,10.20
2019-04-30T22:04:07.728Z,10.20
2019-04-30T22:06:39.470Z,10.20
2019-04-30T22:09:10.405Z,10.20
2019-04-30T22:11:39.879Z,10.20
2019-04-30T22:14:09.330Z,10.20
2019-04-30T22:16:39.763Z,10.20
2019-04-30T22:19:09.998Z,10.10
2019-04-30T22:21:39.735Z,10.10
2019-04-30T22:24:09.377Z,10.20
2019-04-30T22:26:38.828Z,10.10
2019-04-30T22:29:09.256Z,10.10
2019-04-30T22:31:39.724Z,10.00
2019-04-30T22:34:09.440Z,10.10
2019-04-30T22:36:49.120Z,10.20
2019-04-30T22:39:49.927Z,10.20
2019-04-30T22:42:39.950Z,10.10
2019-04-30T22:45:19.862Z,10.10
2019-04-30T22:47:50.347Z,10.10
2019-04-30T22:50:20.046Z,10.00
2019-04-30T22:52:49.466Z,10.10
2019-04-30T22:55:18.898Z,10.10
2019-04-30T22:57:48.384Z,10.00
2019-04-30T23:00:27.428Z,10.00
2019-04-30T23:02:59.706Z,10.00
2019-04-30T23:05:29.279Z,10.00
2019-04-30T23:07:58.776Z,10.00
2019-04-30T23:10:28.262Z,10.00
2019-04-30T23:12:57.760Z,10.00
2019-04-30T23:15:27.242Z,9.90
2019-04-30T23:17:56.777Z,10.00
2019-04-30T23:20:26.256Z,10.00
2019-04-30T23:22:55.682Z,10.00
2019-04-30T23:25:25.293Z,10.10
2019-04-30T23:27:54.773Z,10.10
2019-04-30T23:30:24.206Z,10.00
2019-04-30T23:32:53.688Z,9.90
2019-04-30T23:35:23.200Z,9.90
2019-04-30T23:37:52.970Z,9.80
2019-04-30T23:40:31.828Z,9.80
2019-04-30T23:43:01.269Z,9.80
2019-04-30T23:45:30.730Z,9.70
2019-04-30T23:48:00.204Z,9.70
2019-04-30T23:50:29.808Z,9.70
2019-04-30T23:52:59.234Z,9.70
2019-04-30T23:55:28.699Z,9.80
2019-04-30T23:57:58.158Z,9.70
